Flight Track Log - Related Links

Times and Time Zones

All times are in EDT time to prevent confusion due to time zone crossing. See the QXE2397 flight status page for this flight to view local times or setup timezone preferences in your user account.

Time Position Orientation Groundspeed Altitude Reporting Facility
EDT Latitude Longitude Course Direction KTS MPH feet Rate Location/Type
Sun 09:40:00 PM 46.9757 -114.6911 294° West  Level Estimated
Sun 09:41:00 PM 46.9872 -114.8114 288° West  Level Estimated
Sun 09:42:00 PM 47.0445 -114.8991 314° West  Level FlightAware
Sun 09:43:00 PM 47.1018 -114.9871 314° West  Level FlightAware
Sun 09:44:00 PM 47.1114 -115.1080 292° West  Level Estimated
Sun 09:45:00 PM 47.1208 -115.2290 270° West  Level Estimated
Sun 09:46:00 PM 47.1302 -115.3500 275° West  Level Estimated
Sun 09:47:00 PM 47.1531 -115.4670 286° West  Level FlightAware
Sun 09:48:00 PM 47.1759 -115.5842 286° West  Level FlightAware
Sun 09:49:00 PM 47.1986 -115.7014 286° West  Level FlightAware
Sun 09:50:00 PM 47.2212 -115.8188 286° West  Level FlightAware
Sun 09:51:00 PM 47.2437 -115.9362 286° West  Level FlightAware
Sun 09:52:00 PM 47.2660 -116.0538 286° West  Level FlightAware
Sun 09:53:00 PM 47.2882 -116.1714 286° West  Level FlightAware
Sun 09:54:00 PM 47.3103 -116.2892 286° West  Level FlightAware
Sun 09:55:00 PM 47.3323 -116.4070 285° West  Level FlightAware
Sun 09:56:00 PM 47.3542 -116.5249 285° West  Level FlightAware
Sun 09:57:00 PM 47.3759 -116.6430 285° West  Level FlightAware
Sun 09:58:00 PM 47.3975 -116.7611 285° West  Level FlightAware
Sun 09:59:00 PM 47.4190 -116.8794 285° West  Level FlightAware
Sun 10:00:00 PM 47.4404 -116.9977 285° West  Level FlightAware
Sun 10:01:00 PM 47.4617 -117.1161 285° West  Level FlightAware
Sun 10:02:00 PM 47.4641 -117.2386 279° West  Level Estimated
Sun 10:03:00 PM 47.4853 -117.3571 285° West  Level FlightAware
Sun 10:04:00 PM 47.4870 -117.4797 278° West  Level Estimated
Sun 10:05:00 PM 47.5010 -117.5935 280° West  Level FlightAware
Sun 10:06:00 PM 47.5149 -117.7074 280° West  Level FlightAware
Sun 10:07:00 PM 47.5288 -117.8214 280° West  Level FlightAware
Sun 10:08:00 PM 47.5425 -117.9354 280° West  Level FlightAware
Sun 10:09:00 PM 47.5561 -118.0495 280° West  Level FlightAware
Sun 10:10:00 PM 47.5695 -118.1636 280° West  Level FlightAware
Sun 10:11:00 PM 47.5829 -118.2778 280° West  Level FlightAware
Sun 10:12:00 PM 47.5961 -118.3921 280° West  Level FlightAware
Sun 10:13:00 PM 47.6093 -118.5064 280° West  Level FlightAware
Sun 10:14:00 PM 47.6223 -118.6207 280° West  Level FlightAware
Sun 10:15:00 PM 47.6352 -118.7352 280° West  Level FlightAware
Sun 10:16:00 PM 47.6480 -118.8496 279° West  Level FlightAware
Sun 10:17:00 PM 47.6607 -118.9642 279° West  Level FlightAware
Sun 10:18:00 PM 47.6550 -119.0799 277° West  Level Estimated
Sun 10:19:00 PM 47.6677 -119.1945 279° West  Level FlightAware
Sun 10:20:00 PM 47.6802 -119.3091 279° West  Level FlightAware
Sun 10:21:00 PM 47.6926 -119.4238 279° West  Level FlightAware
Sun 10:22:00 PM 47.7049 -119.5385 279° West  Level FlightAware
Sun 10:23:00 PM 47.6957 -119.6539 296° West  Level Estimated
Sun 10:24:00 PM 47.6863 -119.7692 270° West  Level Estimated
Sun 10:25:00 PM 47.6768 -119.8845 278° West  Level Estimated
Sun 10:26:00 PM 47.6989 -119.9959 286° West  Level FlightAware
Sun 10:27:00 PM 47.6876 -120.1109 276° West  Level Estimated
Sun 10:28:00 PM 47.7099 -120.2223 287° West  Level FlightAware
Sun 10:29:00 PM 47.6967 -120.3368 277° West  Level Estimated
Sun 10:30:00 PM 47.7204 -120.4475 288° West  Level FlightAware
Sun 10:31:00 PM 47.7048 -120.5614 281° West  Level Estimated
Sun 10:32:00 PM 47.6891 -120.6752 276° West  Level Estimated
Sun 10:33:00 PM 47.7156 -120.7845 290° West  Level FlightAware
Sun 10:34:00 PM 47.6968 -120.8972 276° West  Level Estimated
Sun 10:35:00 PM 47.7237 -121.0063 290° West  Level FlightAware
Sun 10:36:00 PM 47.7504 -121.1156 290° West  Level FlightAware
Sun 10:37:00 PM 47.7236 -121.2248 214° Southwest  Level Estimated
Sun 10:38:00 PM 47.6967 -121.3339 228° Southwest  Level Estimated
Sun 10:39:00 PM 47.6698 -121.4429 222° Southwest  Level Estimated
Sun 10:40:00 PM 47.6629 -121.5586 265° West  Level FlightAware
Sun 10:41:00 PM 47.6329 -121.6658 214° Southwest  Level Estimated
Sun 10:42:00 PM 47.6029 -121.7729 233° Southwest  Level Estimated
Sun 10:43:00 PM 47.5728 -121.8799 228° Southwest  Level Estimated
Sun 10:44:00 PM 47.5426 -121.9867 222° Southwest  Level Estimated
Sun 10:45:00 PM 47.5123 -122.0935 222° Southwest  Level Estimated
Sun 10:46:00 PM 47.4819 -122.2001 222° Southwest  Level Estimated
Sun 10:47:00 PM 47.4333 -122.3000 222° Southwest  Level FlightAware
Sun 10:48:00 PM 47.4499 -122.3118 222° Southwest  Level Estimated
Sun 10:49:00 PM 47.4499 -122.3118 222° Southwest  Level Estimated
Sun 10:50:00 PM 47.4499 -122.3118 222° Southwest  Level Estimated
Sun 10:51:00 PM 47.4499 -122.3118 222° Southwest  Level Estimated
Sun 10:52:00 PM 47.4499 -122.3118 222° Southwest  Level Estimated
Sun 10:53:00 PM 47.4499 -122.3118 270° West  Level Estimated
Sun 10:54:00 PM 47.4499 -122.3118 270° West  Level Estimated
Sun 10:55:00 PM 47.4499 -122.3118 270° West  Level Estimated
Sun 10:56:00 PM 47.4499 -122.3118 270° West  Level Estimated
Sun 10:57:00 PM 47.4499 -122.3118 270° West  Level Estimated
Sun 10:58:00 PM 47.4499 -122.3118 270° West  Level Estimated

Login

Don't have an account? Register now (free) for customized features, flight alerts, and more!